Alliance, NE

6:34 PM MDT on March 27, 2015 (GMT -0600)
Alliance Municipal | | Change Station
CLOSE
Current Station
Airport
Location: Alliance,
Elevation: 3930 ft
Nearby Weather Stations
Active Advisory: Fire Weather Warning

Elev 3930 ft 42.06 °N, 102.80 °W | Updated 41 minutes ago

Partly Cloudy
Partly Cloudy
65 °F
Feels Like 65 °F
N
22
Wind Variable Wind from NNW
Gusts 26 mph

Today
High -- | Low -- °F
--% Chance of Precip.
Yesterday
High -- | Low -- °F
Precip. -- in
6:43 AM 7:11 PM
First Quarter, 57% visible
Pressure 29.93 in
Visibility 10.0 miles
Clouds Clear
Dew Point 32 °F
Humidity 29%
Rainfall 0.00 in
Snow Depth Not available.
UV 1 out of 12
Pollen 9.00 out of 12
Air Quality Not available.
Flu Activity Not available.
METAR KAIA 272353Z AUTO 33019G23KT 10SM CLR 18/00 A2996 RMK AO2 PK WND 33033/2321 SLP133 T01830000 10211 20172 55003

More Conditions Fewer Conditions

Pressure 29.93 in
Visibility 10.0 miles
Clouds Clear
Dew Point 32 °F
Humidity 29%
Rainfall 0.00 in
Snow Depth Not available.
UV 1 out of 12
Pollen 9.00 out of 12
Air Quality Not available.
Flu Activity Not available.
METAR KAIA 272353Z AUTO 33019G23KT 10SM CLR 18/00 A2996 RMK AO2 PK WND 33033/2321 SLP133 T01830000 10211 20172 55003

More Conditions Fewer Conditions

10-Day Weather Forecast

Almanac

Astronomy

Mar. 27, 2015 Rise Set
Actual Time
Civil Twilight
Nautical Twilight
Astronomical Twilight
Moon
Length of Visible Light
Length of Day
Tomorrow will be .
, % of the Moon is Illuminated

Today's Extremes

State Highs State Lows

Community

WunderPhotos

Upload Photos

1,808,887 photos uploaded!

WunderBlogs® & News

Nearby

Air Quality

  Air Quality AQ Index Pollutant
Not available.

Snow Depth

Station Depth Elevation

Earthquake Activity

City Distance Mag. Time & Date
Minimum magnitude displayed is 2.5.

Coastal Water Temperatures

Place Temperature

Stations

Nearby Weather Stations

Station Location Temp. Windchill Dew Point Humidity Wind Precip. Elev Updated Type
                   
Fire Weather Warning
Statement as of 1:32 PM MDT on March 27, 2015

... Red flag warning in effect from 11 am to 8 PM MDT Saturday for
gusty winds and low humidities...

The National Weather Service in Cheyenne has issued a red flag
warning... which is in effect from 11 am to 8 PM MDT Saturday. The
Fire Weather Watch is no longer in effect.


* Affected area... fire weather zones 311... 312 and 313. Fire
weather zones 301 and 310.

* Wind... westerly at 20 to 30 mph with gusts 30 to 45 mph.
Strongest winds will be in southeast Wyoming.

* Humidity... 10 to 15 percent.

* Impacts... any fires that develop will likely spread rapidly.
Outdoor burning is not recommended.

Precautionary/preparedness actions...

A red flag warning means that critical fire weather conditions
are either occurring now... or will shortly. A combination of
strong winds... low relative humidity... and warm temperatures will
create explosive fire growth potential.